createdAt,value
2023-03-11T00:00:55.849Z,0.50
2023-03-11T00:03:27.767Z,0.70
2023-03-11T00:05:56.100Z,0.95
2023-03-11T00:08:25.043Z,0.50
2023-03-11T00:10:58.845Z,0.65
2023-03-11T00:13:26.812Z,0.80
2023-03-11T00:15:59.740Z,0.57
2023-03-11T00:18:30.259Z,0.82
2023-03-11T00:20:59.140Z,0.63
2023-03-11T00:23:27.269Z,1.15
2023-03-11T00:25:54.744Z,0.60
2023-03-11T00:28:25.452Z,0.55
2023-03-11T00:30:52.589Z,0.60
2023-03-11T00:33:19.753Z,1.15
2023-03-11T00:35:46.820Z,0.60
2023-03-11T00:38:16.841Z,0.88
2023-03-11T00:40:45.943Z,1.10
2023-03-11T00:43:13.450Z,1.05
2023-03-11T00:45:40.897Z,1.20
2023-03-11T00:48:08.676Z,0.90
2023-03-11T00:50:37.549Z,0.90
2023-03-11T00:53:05.596Z,1.33
2023-03-11T00:55:34.926Z,1.15
2023-03-11T00:58:04.580Z,0.70
2023-03-11T01:00:32.242Z,1.13
2023-03-11T01:03:00.402Z,1.17
2023-03-11T01:05:32.517Z,0.95
2023-03-11T01:08:00.209Z,0.80
2023-03-11T01:10:29.341Z,0.88
2023-03-11T01:12:56.613Z,0.77
2023-03-11T01:15:33.188Z,1.00
2023-03-11T01:18:00.609Z,0.85
2023-03-11T01:20:27.955Z,1.13
2023-03-11T01:22:55.077Z,1.10
2023-03-11T01:25:23.523Z,0.75
2023-03-11T01:27:50.813Z,1.05
2023-03-11T01:30:23.396Z,1.00
2023-03-11T01:32:51.809Z,0.77
2023-03-11T01:35:21.023Z,0.80
2023-03-11T01:37:48.245Z,0.80
2023-03-11T01:40:24.464Z,0.77
2023-03-11T01:42:51.490Z,0.70
2023-03-11T01:45:33.287Z,0.85
2023-03-11T01:48:00.358Z,0.73
2023-03-11T01:50:33.030Z,0.80
2023-03-11T01:53:00.224Z,0.90
2023-03-11T01:55:28.863Z,0.60
2023-03-11T01:57:56.293Z,0.60
2023-03-11T02:00:23.293Z,0.90
2023-03-11T02:02:53.170Z,0.80
2023-03-11T02:05:24.584Z,0.85
2023-03-11T02:07:54.921Z,0.80
2023-03-11T02:10:22.017Z,0.70
2023-03-11T02:12:50.890Z,0.65
2023-03-11T02:15:18.128Z,0.63
2023-03-11T02:17:45.331Z,0.70
2023-03-11T02:20:47.319Z,0.60
2023-03-11T02:23:15.596Z,0.80
2023-03-11T02:26:38.139Z,0.88
2023-03-11T02:29:08.058Z,0.93
2023-03-11T02:31:39.429Z,0.70
2023-03-11T02:34:16.202Z,1.00
2023-03-11T02:36:44.019Z,1.00
2023-03-11T02:39:10.988Z,1.00
2023-03-11T02:41:41.900Z,0.90
2023-03-11T02:44:11.827Z,0.90
2023-03-11T02:46:41.865Z,0.88
2023-03-11T02:49:10.310Z,0.60
2023-03-11T02:51:37.326Z,0.95
2023-03-11T02:54:05.964Z,0.88
2023-03-11T02:56:33.266Z,0.50
2023-03-11T02:59:00.320Z,0.90
2023-03-11T03:01:27.371Z,0.85
2023-03-11T03:03:54.515Z,0.60
2023-03-11T03:06:21.591Z,0.90
2023-03-11T03:08:48.636Z,0.77
2023-03-11T03:11:15.670Z,0.70
2023-03-11T03:13:42.644Z,0.63
2023-03-11T03:16:09.677Z,0.90
2023-03-11T03:18:37.595Z,0.80
2023-03-11T03:21:05.466Z,0.80
2023-03-11T03:23:37.842Z,0.70
2023-03-11T03:26:06.025Z,1.10
2023-03-11T03:28:33.581Z,0.70
2023-03-11T03:31:05.325Z,0.82
2023-03-11T03:33:32.576Z,0.90
2023-03-11T03:35:59.687Z,0.73
2023-03-11T03:38:26.934Z,0.70
2023-03-11T03:40:53.861Z,0.65
2023-03-11T03:43:20.915Z,0.70
2023-03-11T03:45:59.573Z,0.80
2023-03-11T03:48:27.146Z,0.70
2023-03-11T03:50:54.316Z,0.70
2023-03-11T03:53:21.396Z,0.70
2023-03-11T03:55:49.954Z,0.70
2023-03-11T03:58:16.938Z,0.50
2023-03-11T04:00:43.929Z,0.50
2023-03-11T04:03:10.937Z,0.80
2023-03-11T04:05:38.002Z,0.50
2023-03-11T04:08:05.170Z,0.60
2023-03-11T04:10:32.297Z,0.88
2023-03-11T04:12:59.311Z,0.70
2023-03-11T04:15:26.451Z,0.70
2023-03-11T04:17:53.442Z,0.57
2023-03-11T04:20:21.024Z,0.50
2023-03-11T04:22:48.943Z,0.70
2023-03-11T04:25:15.997Z,0.75
2023-03-11T04:27:46.169Z,0.60
2023-03-11T04:30:13.824Z,0.70
2023-03-11T04:32:42.040Z,1.15
2023-03-11T04:35:09.256Z,0.77
2023-03-11T04:37:36.278Z,0.70
2023-03-11T04:40:04.317Z,0.55
2023-03-11T04:42:31.311Z,0.60
2023-03-11T04:44:58.410Z,0.50
2023-03-11T04:47:25.416Z,0.88
2023-03-11T04:49:52.392Z,0.80
2023-03-11T04:52:19.356Z,0.68
2023-03-11T04:54:46.309Z,0.40
2023-03-11T04:57:13.389Z,0.60
2023-03-11T04:59:40.389Z,0.60
2023-03-11T05:02:07.444Z,0.50
2023-03-11T05:04:34.512Z,0.50
2023-03-11T05:07:01.580Z,0.77
2023-03-11T05:09:28.568Z,0.63
2023-03-11T05:11:56.151Z,0.90
2023-03-11T05:14:23.294Z,0.52
2023-03-11T05:16:50.284Z,0.50
2023-03-11T05:19:32.386Z,0.57
2023-03-11T05:21:59.576Z,0.60
2023-03-11T05:24:26.677Z,0.63
2023-03-11T05:26:54.098Z,0.70
2023-03-11T05:29:21.709Z,0.65
2023-03-11T05:31:49.127Z,1.60
2023-03-11T05:34:16.602Z,0.75
2023-03-11T05:36:43.879Z,0.88
2023-03-11T05:39:11.358Z,0.63
2023-03-11T05:41:38.628Z,0.80
2023-03-11T05:44:05.905Z,0.80
2023-03-11T05:46:33.030Z,0.60
2023-03-11T05:49:00.677Z,0.70
2023-03-11T05:51:27.867Z,0.60
2023-03-11T05:53:54.857Z,0.70
2023-03-11T05:56:22.884Z,1.20
2023-03-11T05:58:50.256Z,0.70
2023-03-11T06:01:19.260Z,0.80
2023-03-11T06:03:46.452Z,0.90
2023-03-11T06:06:14.208Z,0.60
2023-03-11T06:08:46.168Z,0.50
2023-03-11T06:11:13.281Z,0.82
2023-03-11T06:13:40.281Z,0.80
2023-03-11T06:16:09.325Z,1.10
2023-03-11T06:18:36.329Z,0.68
2023-03-11T06:21:04.481Z,0.70
2023-03-11T06:23:32.084Z,0.55
2023-03-11T06:26:01.717Z,0.60
2023-03-11T06:28:29.651Z,0.80
2023-03-11T06:30:58.856Z,1.25
2023-03-11T06:33:26.210Z,0.90
2023-03-11T06:36:00.258Z,0.70
2023-03-11T06:38:27.831Z,0.60
2023-03-11T06:40:54.886Z,0.60
2023-03-11T06:43:22.696Z,0.60
2023-03-11T06:45:49.836Z,0.80
2023-03-11T06:48:17.169Z,0.63
2023-03-11T06:50:44.481Z,0.88
2023-03-11T06:53:11.532Z,0.70
2023-03-11T06:55:38.519Z,0.70
2023-03-11T06:58:05.568Z,0.90
2023-03-11T07:00:32.630Z,0.68
2023-03-11T07:02:59.607Z,0.60
2023-03-11T07:05:26.650Z,0.95
2023-03-11T07:07:56.728Z,0.70
2023-03-11T07:10:23.727Z,0.90
2023-03-11T07:12:50.736Z,0.70
2023-03-11T07:15:17.842Z,0.47
2023-03-11T07:17:44.832Z,0.90
2023-03-11T07:20:12.373Z,0.95
2023-03-11T07:22:39.427Z,0.60
2023-03-11T07:25:06.632Z,0.52
2023-03-11T07:27:33.605Z,0.47
2023-03-11T07:30:02.814Z,0.57
2023-03-11T07:32:29.894Z,0.50
2023-03-11T07:34:56.982Z,0.57
2023-03-11T07:37:24.011Z,0.40
2023-03-11T07:39:51.098Z,0.50
2023-03-11T07:42:18.157Z,0.60
2023-03-11T07:44:45.133Z,0.40
2023-03-11T07:47:12.086Z,0.60
2023-03-11T07:49:39.152Z,0.40
2023-03-11T07:52:06.629Z,0.90
2023-03-11T07:54:33.698Z,0.55
2023-03-11T07:57:01.276Z,0.45
2023-03-11T07:59:28.370Z,0.77
2023-03-11T08:01:55.439Z,0.57
2023-03-11T08:04:22.417Z,0.43
2023-03-11T08:06:49.656Z,0.82
2023-03-11T08:09:16.648Z,0.73
2023-03-11T08:11:43.709Z,0.47
2023-03-11T08:14:10.975Z,0.50
2023-03-11T08:16:40.733Z,0.60
2023-03-11T08:19:07.753Z,0.80
2023-03-11T08:21:34.755Z,0.75
2023-03-11T08:24:03.351Z,0.50
2023-03-11T08:26:32.074Z,0.57
2023-03-11T08:28:59.702Z,0.80
2023-03-11T08:31:30.118Z,0.60
2023-03-11T08:34:01.200Z,0.40
2023-03-11T08:36:28.519Z,0.40
2023-03-11T08:38:55.862Z,0.60
2023-03-11T08:41:22.926Z,0.40
2023-03-11T08:43:52.337Z,1.13
2023-03-11T08:46:39.302Z,0.88
2023-03-11T08:49:07.093Z,0.47
2023-03-11T08:51:35.689Z,0.70
2023-03-11T08:54:04.296Z,0.50
2023-03-11T08:56:31.449Z,0.80
2023-03-11T08:58:58.515Z,1.00
2023-03-11T09:01:25.792Z,1.10
2023-03-11T09:03:52.972Z,0.75
2023-03-11T09:06:20.316Z,0.70
2023-03-11T09:08:48.937Z,0.50
2023-03-11T09:11:17.024Z,0.80
2023-03-11T09:13:44.445Z,0.77
2023-03-11T09:16:17.920Z,0.88
2023-03-11T09:18:45.153Z,0.70
2023-03-11T09:21:13.082Z,0.65
2023-03-11T09:23:42.879Z,0.70
2023-03-11T09:26:13.542Z,0.68
2023-03-11T09:28:42.123Z,0.80
2023-03-11T09:31:09.770Z,0.70
2023-03-11T09:33:39.311Z,0.60
2023-03-11T09:36:07.425Z,0.93
2023-03-11T09:38:34.477Z,0.60
2023-03-11T09:41:27.464Z,0.63
2023-03-11T09:44:21.663Z,0.60
2023-03-11T09:47:02.643Z,0.75
2023-03-11T09:49:53.000Z,0.50
2023-03-11T09:52:27.982Z,0.80
2023-03-11T09:54:56.335Z,0.50
2023-03-11T09:57:28.390Z,0.50
2023-03-11T09:59:56.151Z,0.95
2023-03-11T10:02:28.044Z,0.50
2023-03-11T10:05:06.863Z,0.70
2023-03-11T10:08:11.910Z,0.73
2023-03-11T10:10:54.092Z,0.47
2023-03-11T10:13:34.601Z,0.75
2023-03-11T10:16:16.708Z,0.50
2023-03-11T10:19:14.568Z,0.82
2023-03-11T10:21:58.378Z,1.00
2023-03-11T10:24:49.605Z,0.90
2023-03-11T10:27:34.288Z,0.60
2023-03-11T10:30:15.292Z,0.60
2023-03-11T10:32:51.312Z,0.70
2023-03-11T10:35:34.316Z,1.00
2023-03-11T10:38:12.505Z,0.70
2023-03-11T10:40:47.353Z,0.70
2023-03-11T10:43:24.920Z,0.95
2023-03-11T10:45:53.579Z,0.82
2023-03-11T10:48:21.960Z,1.00
2023-03-11T10:51:22.666Z,0.70
2023-03-11T10:53:52.708Z,0.77
2023-03-11T10:56:37.934Z,0.90
2023-03-11T10:59:21.952Z,3.92
2023-03-11T11:02:23.909Z,1.00
2023-03-11T11:05:03.358Z,1.23
2023-03-11T11:07:36.194Z,0.90
2023-03-11T11:10:22.227Z,0.60
2023-03-11T11:13:00.951Z,0.90
2023-03-11T11:15:37.333Z,1.00
2023-03-11T11:18:07.729Z,0.98
2023-03-11T11:20:35.419Z,0.80
2023-03-11T11:23:04.449Z,0.65
2023-03-11T11:25:31.429Z,1.00
2023-03-11T11:28:02.229Z,0.82
2023-03-11T11:30:29.988Z,1.10
2023-03-11T11:33:18.031Z,1.20
2023-03-11T11:35:55.127Z,1.20
2023-03-11T11:38:25.181Z,1.10
2023-03-11T11:40:55.105Z,1.00
2023-03-11T11:43:49.957Z,0.70
2023-03-11T11:46:39.078Z,1.20
2023-03-11T11:49:14.897Z,1.35
2023-03-11T11:51:50.764Z,1.80
2023-03-11T11:54:34.840Z,1.10
2023-03-11T11:57:10.720Z,0.70
2023-03-11T11:59:38.058Z,1.00
2023-03-11T12:02:19.810Z,1.00
2023-03-11T12:04:49.335Z,0.70
2023-03-11T12:07:38.799Z,1.10
2023-03-11T12:10:22.856Z,0.93
2023-03-11T12:13:09.605Z,0.70
2023-03-11T12:15:42.515Z,1.00
2023-03-11T12:18:25.940Z,0.85
2023-03-11T12:20:56.171Z,0.80
2023-03-11T12:24:00.418Z,0.70
2023-03-11T12:26:34.005Z,0.68
2023-03-11T12:29:28.914Z,0.75
2023-03-11T12:31:59.988Z,0.75
2023-03-11T12:34:29.788Z,0.90
2023-03-11T12:37:03.636Z,1.10
2023-03-11T12:39:35.359Z,1.10
2023-03-11T12:42:11.390Z,1.30
2023-03-11T12:44:39.712Z,0.88
2023-03-11T12:47:12.356Z,0.88
2023-03-11T12:49:48.216Z,0.90
2023-03-11T12:52:19.346Z,0.80
2023-03-11T12:54:49.204Z,0.93
2023-03-11T12:57:19.265Z,1.48
2023-03-11T12:59:55.800Z,1.17
2023-03-11T13:02:56.833Z,1.08
2023-03-11T13:05:50.949Z,0.98
2023-03-11T13:08:25.803Z,0.90
2023-03-11T13:10:55.779Z,1.00
2023-03-11T13:13:32.706Z,0.90
2023-03-11T13:16:19.745Z,1.02
2023-03-11T13:18:49.159Z,1.17
2023-03-11T13:21:28.600Z,1.50
2023-03-11T13:24:26.171Z,1.08
2023-03-11T13:27:07.155Z,0.88
2023-03-11T13:29:47.941Z,1.00
2023-03-11T13:32:26.704Z,0.93
2023-03-11T13:35:04.765Z,1.00
2023-03-11T13:38:04.093Z,1.05
2023-03-11T13:40:42.454Z,0.85
2023-03-11T13:43:18.820Z,1.17
2023-03-11T13:45:58.436Z,0.75
2023-03-11T13:48:46.114Z,0.80
2023-03-11T13:51:22.125Z,0.70
2023-03-11T13:54:06.453Z,0.65
2023-03-11T13:56:43.898Z,0.60
2023-03-11T13:59:28.622Z,0.90
2023-03-11T14:02:17.481Z,0.90
2023-03-11T14:05:07.287Z,0.90
2023-03-11T14:07:37.717Z,0.63
2023-03-11T14:10:24.408Z,1.20
2023-03-11T14:12:53.234Z,0.77
2023-03-11T14:15:26.967Z,0.80
2023-03-11T14:18:14.760Z,0.90
2023-03-11T14:20:42.048Z,0.60
2023-03-11T14:23:19.045Z,0.60
2023-03-11T14:25:46.924Z,0.70
2023-03-11T14:28:20.897Z,0.68
2023-03-11T14:30:59.497Z,0.65
2023-03-11T14:33:27.505Z,0.50
2023-03-11T14:36:04.895Z,0.50
2023-03-11T14:38:33.423Z,0.60
2023-03-11T14:41:05.206Z,0.90
2023-03-11T14:43:46.369Z,0.75
2023-03-11T14:46:21.779Z,1.10
2023-03-11T14:48:50.032Z,1.77
2023-03-11T14:51:36.234Z,4.50
2023-03-11T14:54:15.582Z,2.50
2023-03-11T14:56:51.427Z,1.30
2023-03-11T14:59:26.954Z,0.70
2023-03-11T15:01:58.502Z,0.73
2023-03-11T15:04:35.718Z,1.10
2023-03-11T15:07:05.478Z,1.60
2023-03-11T15:09:33.418Z,1.15
2023-03-11T15:12:04.486Z,1.05
2023-03-11T15:14:35.596Z,0.77
2023-03-11T15:17:31.016Z,0.80
2023-03-11T15:20:02.503Z,1.10
2023-03-11T15:22:37.085Z,0.77
2023-03-11T15:25:14.853Z,0.90
2023-03-11T15:27:42.526Z,1.27
2023-03-11T15:30:21.167Z,1.10
2023-03-11T15:32:52.302Z,1.27
2023-03-11T15:35:25.440Z,1.00
2023-03-11T15:38:23.804Z,0.75
2023-03-11T15:40:53.864Z,1.15
2023-03-11T15:43:33.423Z,1.13
2023-03-11T15:46:03.453Z,0.90
2023-03-11T15:48:31.491Z,1.05
2023-03-11T15:51:00.620Z,1.38
2023-03-11T15:53:30.684Z,0.90
2023-03-11T15:56:07.398Z,1.38
2023-03-11T15:58:37.689Z,0.93
2023-03-11T16:01:05.013Z,0.60
2023-03-11T16:03:32.449Z,0.82
2023-03-11T16:06:00.029Z,0.80
2023-03-11T16:08:27.513Z,0.60
2023-03-11T16:10:54.552Z,0.82
2023-03-11T16:13:22.269Z,1.10
2023-03-11T16:15:49.623Z,1.00
2023-03-11T16:18:16.835Z,1.05
2023-03-11T16:20:53.766Z,0.95
2023-03-11T16:23:24.275Z,0.85
2023-03-11T16:26:00.788Z,1.20
2023-03-11T16:28:29.130Z,0.70
2023-03-11T16:30:56.683Z,0.90
2023-03-11T16:33:24.483Z,0.70
2023-03-11T16:35:52.113Z,0.70
2023-03-11T16:38:20.884Z,1.20
2023-03-11T16:40:57.162Z,1.45
2023-03-11T16:43:25.101Z,1.90
2023-03-11T16:45:54.996Z,1.52
2023-03-11T16:48:25.294Z,1.30
2023-03-11T16:50:53.148Z,1.58
2023-03-11T16:53:20.332Z,1.98
2023-03-11T16:55:49.112Z,1.35
2023-03-11T16:58:16.828Z,1.25
2023-03-11T17:00:44.591Z,2.60
2023-03-11T17:03:18.241Z,1.33
2023-03-11T17:05:48.880Z,2.13
2023-03-11T17:08:18.476Z,1.58
2023-03-11T17:10:48.145Z,2.00
2023-03-11T17:13:18.843Z,2.80
2023-03-11T17:15:56.523Z,1.50
2023-03-11T17:18:23.805Z,1.38
2023-03-11T17:20:51.971Z,1.55
2023-03-11T17:23:20.180Z,1.90
2023-03-11T17:25:47.834Z,1.38
2023-03-11T17:28:15.646Z,1.75
2023-03-11T17:30:44.813Z,1.50
2023-03-11T17:33:12.450Z,1.50
2023-03-11T17:35:41.346Z,1.38
2023-03-11T17:38:09.131Z,1.80
2023-03-11T17:40:38.243Z,3.85
2023-03-11T17:43:06.174Z,1.40
2023-03-11T17:45:34.147Z,1.20
2023-03-11T17:48:01.814Z,1.15
2023-03-11T17:50:30.909Z,1.40
2023-03-11T17:52:58.807Z,1.20
2023-03-11T17:55:27.028Z,1.40
2023-03-11T17:57:54.804Z,1.27
2023-03-11T18:00:23.068Z,1.75
2023-03-11T18:02:52.520Z,1.40
2023-03-11T18:05:21.606Z,2.22
2023-03-11T18:07:50.034Z,1.10
2023-03-11T18:10:17.984Z,1.10
2023-03-11T18:12:47.175Z,1.05
2023-03-11T18:15:19.709Z,1.58
2023-03-11T18:17:47.949Z,1.10
2023-03-11T18:20:16.355Z,1.27
2023-03-11T18:22:46.705Z,1.50
2023-03-11T18:25:14.924Z,1.95
2023-03-11T18:27:42.032Z,1.65
2023-03-11T18:30:11.896Z,1.60
2023-03-11T18:32:41.306Z,1.50
2023-03-11T18:35:09.600Z,1.73
2023-03-11T18:37:37.279Z,1.17
2023-03-11T18:40:06.344Z,1.58
2023-03-11T18:42:34.408Z,1.13
2023-03-11T18:45:02.410Z,1.10
2023-03-11T18:47:30.029Z,1.70
2023-03-11T18:49:57.931Z,1.17
2023-03-11T18:52:25.537Z,1.00
2023-03-11T18:54:54.775Z,0.80
2023-03-11T18:57:22.673Z,1.30
2023-03-11T18:59:52.384Z,1.23
2023-03-11T19:02:21.599Z,1.33
2023-03-11T19:04:49.785Z,1.13
2023-03-11T19:07:17.952Z,1.50
2023-03-11T19:09:45.939Z,1.13
2023-03-11T19:12:13.702Z,1.42
2023-03-11T19:14:41.162Z,1.92
2023-03-11T19:17:08.958Z,1.27
2023-03-11T19:19:36.911Z,1.35
2023-03-11T19:22:06.335Z,1.27
2023-03-11T19:24:34.199Z,1.58
2023-03-11T19:27:03.146Z,1.30
2023-03-11T19:29:30.732Z,1.27
2023-03-11T19:31:58.490Z,1.35
2023-03-11T19:34:27.789Z,1.77
2023-03-11T19:36:55.288Z,1.95
2023-03-11T19:39:22.750Z,1.40
2023-03-11T19:41:50.779Z,1.30
2023-03-11T19:44:18.934Z,1.30
2023-03-11T19:46:46.901Z,1.48
2023-03-11T19:49:14.659Z,1.65
2023-03-11T19:51:50.071Z,1.20
2023-03-11T19:54:20.006Z,1.50
2023-03-11T19:56:49.448Z,1.33
2023-03-11T19:59:17.381Z,1.42
2023-03-11T20:01:45.147Z,1.10
2023-03-11T20:04:13.239Z,1.70
2023-03-11T20:06:41.440Z,1.85
2023-03-11T20:09:09.700Z,1.40
2023-03-11T20:11:41.219Z,1.40
2023-03-11T20:14:10.241Z,1.80
2023-03-11T20:16:38.392Z,1.73
2023-03-11T20:19:07.033Z,1.27
2023-03-11T20:21:39.439Z,1.88
2023-03-11T20:24:08.142Z,1.30
2023-03-11T20:26:38.139Z,1.45
2023-03-11T20:29:06.290Z,1.50
2023-03-11T20:31:36.216Z,1.42
2023-03-11T20:34:05.155Z,1.25
2023-03-11T20:36:34.589Z,1.58
2023-03-11T20:39:02.384Z,1.65
2023-03-11T20:41:40.224Z,2.00
2023-03-11T20:44:11.712Z,1.85
2023-03-11T20:46:39.667Z,1.70
2023-03-11T20:49:07.592Z,2.20
2023-03-11T20:51:35.630Z,2.17
2023-03-11T20:54:03.625Z,1.88
2023-03-11T20:56:31.171Z,2.05
2023-03-11T20:58:59.880Z,1.40
2023-03-11T21:01:30.801Z,1.77
2023-03-11T21:04:01.961Z,1.80
2023-03-11T21:06:35.115Z,1.63
2023-03-11T21:09:05.765Z,1.98
2023-03-11T21:11:34.690Z,1.52
2023-03-11T21:14:03.178Z,1.20
2023-03-11T21:16:31.450Z,1.30
2023-03-11T21:19:01.922Z,1.70
2023-03-11T21:21:33.061Z,1.73
2023-03-11T21:24:00.749Z,1.80
2023-03-11T21:26:28.217Z,2.00
2023-03-11T21:28:55.745Z,1.60
2023-03-11T21:31:27.827Z,1.85
2023-03-11T21:33:58.760Z,1.95
2023-03-11T21:36:26.039Z,1.90
2023-03-11T21:38:53.837Z,1.73
2023-03-11T21:41:26.743Z,1.60
2023-03-11T21:43:55.764Z,1.63
2023-03-11T21:46:26.368Z,1.40
2023-03-11T21:48:53.769Z,2.13
2023-03-11T21:51:21.648Z,2.28
2023-03-11T21:53:49.453Z,1.90
2023-03-11T21:56:17.305Z,1.50
2023-03-11T21:58:44.573Z,1.73
2023-03-11T22:01:12.500Z,2.10
2023-03-11T22:03:39.738Z,1.65
2023-03-11T22:06:10.004Z,2.30
2023-03-11T22:08:37.903Z,1.80
2023-03-11T22:11:08.854Z,2.00
2023-03-11T22:13:36.099Z,1.63
2023-03-11T22:16:05.613Z,1.90
2023-03-11T22:18:32.746Z,1.70
2023-03-11T22:21:00.481Z,2.10
2023-03-11T22:23:28.453Z,2.08
2023-03-11T22:25:55.602Z,2.10
2023-03-11T22:28:23.272Z,2.25
2023-03-11T22:30:50.293Z,2.00
2023-03-11T22:33:17.510Z,1.75
2023-03-11T22:35:56.080Z,2.22
2023-03-11T22:38:23.810Z,2.00
2023-03-11T22:40:51.549Z,1.80
2023-03-11T22:43:18.589Z,2.47
2023-03-11T22:45:46.348Z,2.30
2023-03-11T22:48:13.420Z,3.05
2023-03-11T22:50:44.617Z,2.85
2023-03-11T22:53:12.691Z,3.00
2023-03-11T22:55:45.862Z,2.92
2023-03-11T22:58:13.095Z,2.47
2023-03-11T23:00:40.682Z,2.65
2023-03-11T23:03:07.771Z,3.05
2023-03-11T23:05:41.742Z,2.67
2023-03-11T23:08:10.714Z,2.83
2023-03-11T23:10:41.195Z,2.33
2023-03-11T23:13:08.275Z,1.95
2023-03-11T23:15:35.418Z,2.03
2023-03-11T23:18:02.444Z,2.30
2023-03-11T23:20:29.507Z,2.30
2023-03-11T23:22:56.526Z,2.72
2023-03-11T23:25:23.719Z,2.10
2023-03-11T23:27:50.739Z,2.00
2023-03-11T23:30:18.155Z,2.33
2023-03-11T23:32:45.429Z,2.00
2023-03-11T23:35:13.050Z,2.33
2023-03-11T23:37:40.549Z,2.63
2023-03-11T23:40:09.666Z,2.33
2023-03-11T23:42:36.692Z,2.72
2023-03-11T23:45:04.424Z,2.22
2023-03-11T23:47:31.454Z,2.40
2023-03-11T23:49:58.517Z,2.45
2023-03-11T23:52:25.702Z,2.25
2023-03-11T23:54:52.829Z,2.45
2023-03-11T23:57:19.877Z,2.20
2023-03-11T23:59:46.944Z,2.50
